Hlavní strana
METAR-TAF:

METAR-TAF

Letiště :

Marianna Municipal Airport

Marianna, Florida, Spojené státy americké

zeměpisná šířka: 30-50-12N, zeměpisná délka: 085-11-01W, výška: 34 m

Aktuální stav počasí

Zpráva byla vytvořena před 22 minutami, v 10:53 UTC
Východoseverovýchodní vítr 3 kt
Teplota 21°C
Vlhkost vzduchu 88%
Tlak 1021 hPa
Viditelnost: 16.1 km
Jasno

METAR: KMAI 241053Z AUTO 06003KT 10SM CLR 21/19 A3014 RMK AO2 SLP205 T02110194

Čas: 06:15 (11:15 UTC)


TAF: chybějící

Stav a předpovědi počasí z více než 4 000 letišť (zprávy METAR a TAF).

Červené a žluté tečky na mapě představují dostupné meteorologické stanice.

Když kurzor umístíte na tečku, zobrazí se název stanice.

Pak kliknutím zobrazíte stav a předpověď počasí.

Chcete-li změnit mapu, kliknutím na zelené tlačítko se znaménkem +mapu přiblížíte, kliknutím na zelené tlačítko se znaménkem – mapu oddálíte a kliknutím na zelené šipky přejdete na sousední mapy.


METAR-TAF: